Flight Track Log - Related Links

Times and Time Zones

All times are in EDT time to prevent confusion due to time zone crossing. See the AAL1144 flight status page for this flight to view local times or setup timezone preferences in your user account.

Time Position Orientation Groundspeed Altitude Reporting Facility
EDT Latitude Longitude Course Direction KTS km/h feet Rate Location/Type
Sun 20:02:37 33.6520 -117.8850 208° Southwest 152 282 1.500  Level FlightAware ADS-B
Sun 20:02:52 33.6400 -117.8890 196° South 180 333 1.800 1.500 Climbing FlightAware ADS-B
Sun 20:03:17 33.6170 -117.8930 188° South 214 396 2.500 2.073 Climbing FlightAware ADS-B
Sun 20:03:47 33.5880 -117.8970 187° South 239 443 3.700 2.509 Climbing FlightAware ADS-B
Sun 20:04:12 33.5630 -117.8940 174° South 250 463 4.800 3.450 Climbing FlightAware ADS-B
Sun 20:04:27 33.5450 -117.8770 142° Southeast 255 472 6.000 4.000 Climbing FlightAware ADS-B
Sun 20:04:42 33.5390 -117.8550 108° East 266 492 6.800 3.067 Climbing FlightAware ADS-B
Sun 20:05:12 33.5440 -117.8090 83° East 286 529 8.300 2.900 Climbing FlightAware ADS-B
Sun 20:05:42 33.5510 -117.7590 80° East 305 565 9.700 2.143 Climbing FlightAware ADS-B
Sun 20:06:22 33.5590 -117.6870 82° East 354 655 10.800 1.950 Climbing FlightAware ADS-B
Sun 20:07:02 33.5690 -117.6070 81° East 381 705 12.300 2.625 Climbing FlightAware ADS-B
Sun 20:07:42 33.5790 -117.5210 82° East 391 724 14.300 3.176 Climbing FlightAware ADS-B
Sun 20:08:27 33.5860 -117.4240 85° East 389 721 16.800 2.965 Climbing FlightAware ADS-B
Sun 20:09:07 33.5890 -117.3380 88° East 398 737 18.500 2.400 Climbing FlightAware ADS-B
Sun 20:09:52 33.5930 -117.2350 87° East 412 763 20.200 2.259 Climbing FlightAware ADS-B
Sun 20:10:32 33.5960 -117.1420 88° East 420 777 21.700 2.025 Climbing FlightAware ADS-B
Sun 20:11:12 33.6000 -117.0480 87° East 427 790 22.900 918 Climbing FlightAware ADS-B
Sun 20:11:57 33.6030 -116.9440 88° East 427 790 23.000 847 Climbing FlightAware ADS-B
Sun 20:12:37 33.6070 -116.8490 87° East 429 795 24.100 1.765 Climbing FlightAware ADS-B
Sun 20:13:22 33.6100 -116.7400 88° East 437 810 25.500 1.725 Climbing FlightAware ADS-B
Sun 20:13:57 33.6130 -116.6620 87° East 443 821 26.400 675 Climbing FlightAware ADS-B
Sun 20:14:42 33.6170 -116.5590 87° East 443 821 26.400  Level FlightAware ADS-B
Sun 20:15:22 33.6210 -116.4760 87° East 443 821 26.400  Level FlightAware ADS-B
Sun 20:16:02 33.6250 -116.3920 87° East 443 821 26.400  Level FlightAware ADS-B
Sun 20:16:52 33.6290 -116.2880 87° East 443 821 26.400  Level FlightAware ADS-B
Sun 20:17:32 33.6330 -116.2040 87° East 443 821 26.400 3.750 Level FlightAware ADS-B
Sun 20:18:12 33.6770 -116.0050 75° East 488 904 31.400 3.750 Climbing FlightAware ADS-B
Sun 20:18:52 33.7040 -115.9190 69° East 488 904 31.400  Level FlightAware ADS-B
Sun 20:19:32 33.7320 -115.8330 69° East 488 904 31.400  Level FlightAware ADS-B
Sun 20:20:22 33.7660 -115.7250 69° East 488 904 31.400  Level FlightAware ADS-B
Sun 20:21:02 33.7940 -115.6390 69° East 488 904 31.400  Level FlightAware ADS-B
Sun 20:21:42 33.8210 -115.5530 69° East 488 904 31.400  Level FlightAware ADS-B
Sun 20:22:32 33.8560 -115.4450 69° East 488 904 31.400  Level FlightAware ADS-B
Sun 20:23:12 33.8830 -115.3580 69° East 488 904 31.400  Level FlightAware ADS-B
Sun 20:23:52 33.9110 -115.2720 69° East 488 904 31.400  Level FlightAware ADS-B
Sun 20:24:32 33.9380 -115.1860 69° East 488 904 31.400  Level FlightAware ADS-B
Sun 20:25:12 33.9660 -115.0990 69° East 488 904 31.400  Level FlightAware ADS-B
Sun 20:25:52 33.9930 -115.0130 69° East 488 904 31.400  Level FlightAware ADS-B
Sun 20:26:42 34.0270 -114.9050 69° East 488 904 31.400  Level FlightAware ADS-B
Sun 20:27:22 34.0550 -114.8180 69° East 488 904 31.400 3.733 Level FlightAware ADS-B
Sun 20:28:12 34.1360 -114.4790 74° East 500 925 37.000 3.360 Climbing FlightAware ADS-B
Sun 20:29:02 34.1860 -114.3090 70° East 503 932 37.000  Level FlightAware ADS-B
Sun 20:29:42 34.2170 -114.2010 71° East 501 929 37.000  Level FlightAware ADS-B
Sun 20:30:27 34.2510 -114.0840 71° East 503 932 37.000  Level FlightAware ADS-B
Sun 20:31:07 34.2820 -113.9790 70° East 504 933 37.000  Level FlightAware ADS-B
Sun 20:31:52 34.3150 -113.8620 71° East 504 933 37.000  Level FlightAware ADS-B
Sun 20:32:32 34.3470 -113.7510 71° East 503 932 37.000  Level FlightAware ADS-B
Sun 20:33:07 34.3720 -113.6660 70° East 505 935 37.000  Level FlightAware ADS-B
Sun 20:33:57 34.4110 -113.5260 71° East 507 938 37.000  Level FlightAware ADS-B
Sun 20:34:37 34.4410 -113.4190 71° East 502 930 37.000  Level FlightAware ADS-B
Sun 20:35:17 34.4710 -113.3150 71° East 500 925 37.000  Level FlightAware ADS-B
Sun 20:36:02 34.5050 -113.1920 71° East 498 922 37.000  Level FlightAware ADS-B
Sun 20:36:42 34.5350 -113.0860 71° East 496 919 37.000  Level FlightAware ADS-B
Sun 20:37:22 34.5640 -112.9810 71° East 495 917 37.000  Level FlightAware ADS-B
Sun 20:38:07 34.5960 -112.8640 72° East 493 912 37.000  Level FlightAware ADS-B
Sun 20:38:47 34.6250 -112.7590 71° East 495 917 37.000  Level FlightAware ADS-B
Sun 20:39:32 34.6580 -112.6440 71° East 495 917 37.000  Level FlightAware ADS-B
Sun 20:40:12 34.6880 -112.5350 71° East 497 921 37.000  Level FlightAware ADS-B
Sun 20:40:57 34.7240 -112.4150 70° East 499 924 37.000  Level FlightAware ADS-B
Sun 20:41:37 34.7580 -112.3140 68° East 501 929 37.000  Level FlightAware ADS-B
Sun 20:42:17 34.7940 -112.2070 68° East 503 932 37.000  Level FlightAware ADS-B
Sun 20:43:02 34.8310 -112.0920 69° East 508 941 37.000  Level FlightAware ADS-B
Sun 20:43:42 34.8670 -111.9850 68° East 509 943 37.000  Level FlightAware ADS-B
Sun 20:44:27 34.9060 -111.8640 69° East 511 946 37.000  Level FlightAware ADS-B
Sun 20:45:07 34.9420 -111.7570 68° East 509 943 37.000  Level FlightAware ADS-B
Sun 20:45:47 34.9790 -111.6510 67° East 508 941 37.000  Level FlightAware ADS-B
Sun 20:46:32 35.0280 -111.5420 61° Northeast 506 937 37.000  Level FlightAware ADS-B
Sun 20:47:12 35.0730 -111.4390 62° Northeast 505 935 37.000  Level FlightAware ADS-B
Sun 20:47:52 35.1160 -111.3390 62° Northeast 505 935 37.000  Level FlightAware ADS-B
Sun 20:48:37 35.1660 -111.2240 62° Northeast 505 935 37.000  Level FlightAware ADS-B
Sun 20:49:17 35.2100 -111.1220 62° Northeast 505 935 37.000  Level FlightAware ADS-B
Sun 20:50:02 35.2570 -111.0140 62° Northeast 505 935 37.000  Level FlightAware ADS-B
Sun 20:50:42 35.3010 -110.9120 62° Northeast 505 935 37.000  Level FlightAware ADS-B
Sun 20:51:22 35.3450 -110.8090 62° Northeast 505 935 37.000  Level FlightAware ADS-B
Sun 20:51:52 35.3770 -110.7350 62° Northeast 505 935 37.000  Level FlightAware ADS-B
Sun 20:52:37 35.4270 -110.6190 62° Northeast 506 937 37.000  Level FlightAware ADS-B
Sun 20:53:17 35.4700 -110.5170 63° Northeast 505 935 37.000  Level FlightAware ADS-B
Sun 20:53:57 35.5130 -110.4160 62° Northeast 506 937 37.000  Level FlightAware ADS-B
Sun 20:54:37 35.5560 -110.3140 63° Northeast 505 935 37.000  Level FlightAware ADS-B
Sun 20:55:22 35.6050 -110.1990 62° Northeast 506 937 37.000  Level FlightAware ADS-B
Sun 20:56:02 35.6460 -110.0990 63° Northeast 505 935 37.000  Level FlightAware ADS-B
Sun 20:56:57 35.7030 -109.9660 62° Northeast 505 935 37.000  Level FlightAware ADS-B
Sun 20:57:42 35.7510 -109.8520 63° Northeast 506 937 37.000  Level FlightAware ADS-B
Sun 20:58:37 35.8130 -109.7000 63° Northeast 504 933 37.000  Level FlightAware ADS-B
Sun 20:59:17 35.8550 -109.5980 63° Northeast 506 937 37.000  Level FlightAware ADS-B
Sun 20:59:57 35.8980 -109.4960 62° Northeast 505 935 37.000  Level FlightAware ADS-B
Sun 21:00:42 35.9390 -109.3950 63° Northeast 505 935 37.000  Level FlightAware ADS-B
Sun 21:01:22 35.9750 -109.3080 63° Northeast 505 935 37.000  Level FlightAware ADS-B
Sun 21:02:02 36.0110 -109.2200 63° Northeast 505 935 37.000  Level FlightAware ADS-B
Sun 21:02:42 36.0470 -109.1330 63° Northeast 505 935 37.000  Level FlightAware ADS-B
Sun 21:03:32 36.0920 -109.0230 63° Northeast 505 935 37.000  Level FlightAware ADS-B
Sun 21:04:12 36.1280 -108.9360 63° Northeast 505 935 37.000  Level FlightAware ADS-B
Sun 21:04:52 36.1640 -108.8480 63° Northeast 505 935 37.000  Level FlightAware ADS-B
Sun 21:05:32 36.2000 -108.7600 63° Northeast 505 935 37.000  Level FlightAware ADS-B
Sun 21:06:17 36.2960 -108.5150 64° Northeast 505 935 37.000  Level FlightAware ADS-B
Sun 21:06:57 36.3340 -108.4210 63° Northeast 505 935 37.000  Level FlightAware ADS-B
Sun 21:07:37 36.3700 -108.3330 63° Northeast 505 935 37.000  Level FlightAware ADS-B
Sun 21:08:17 36.4180 -108.2080 64° Northeast 37.000  Level FlightAware ADS-B
Sun 21:13:32 36.6670 -107.3510 70° East 496 919 37.000  Level FlightAware ADS-B
Sun 21:14:17 36.6980 -107.2280 73° East 497 921 37.000  Level FlightAware ADS-B
Sun 21:14:57 36.7260 -107.1170 72° East 496 919 37.000  Level FlightAware ADS-B
Sun 21:15:47 36.7600 -106.9800 73° East 496 919 37.000  Level FlightAware ADS-B
Sun 21:16:37 36.7940 -106.8450 73° East 496 919 37.000  Level FlightAware ADS-B
Sun 21:17:37 36.8310 -106.6970 73° East 497 921 37.000  Level FlightAware ADS-B
Sun 21:18:27 36.8610 -106.5810 72° East 497 921 37.000  Level FlightAware ADS-B
Sun 21:19:07 36.8850 -106.4880 72° East 497 921 37.000  Level FlightAware ADS-B
Sun 21:19:47 36.9100 -106.3950 71° East 497 921 37.000  Level FlightAware ADS-B
Sun 21:20:27 36.9340 -106.3020 72° East 497 921 37.000  Level FlightAware ADS-B
Sun 21:21:17 36.9640 -106.1850 72° East 497 921 37.000  Level FlightAware ADS-B
Sun 21:21:57 36.9880 -106.0920 72° East 497 921 37.000  Level FlightAware ADS-B
Sun 21:22:37 37.0120 -105.9990 72° East 497 921 37.000  Level FlightAware ADS-B
Sun 21:23:17 37.0360 -105.9060 72° East 497 921 37.000  Level FlightAware ADS-B
Sun 21:23:57 37.0600 -105.8130 72° East 497 921 37.000  Level FlightAware ADS-B
Sun 21:24:47 37.0910 -105.6970 71° East 497 921 37.000  Level FlightAware ADS-B
Sun 21:25:27 37.1150 -105.6030 72° East 497 921 37.000  Level FlightAware ADS-B
Sun 21:26:07 37.1390 -105.5100 72° East 497 921 37.000  Level FlightAware ADS-B
Sun 21:26:47 37.1630 -105.4170 72° East 497 921 37.000 1.538 Level FlightAware ADS-B
Sun 21:27:25 37.2400 -105.0600 75° East 496 919 39.000 320 Climbing FlightAware ADS-B
Sun 21:33:02 37.4674 -104.1350 73° East 495 917 39.000  Level FlightAware ADS-B
Sun 21:33:34 37.4882 -104.0490 73° East 496 919 39.000  Level FlightAware ADS-B
Sun 21:34:05 37.5094 -103.9630 73° East 497 921 39.000  Level FlightAware ADS-B
Sun 21:34:37 37.5335 -103.8740 71° East 496 919 39.000  Level FlightAware ADS-B
Sun 21:35:15 37.5621 -103.7700 71° East 497 921 39.000  Level FlightAware ADS-B
Sun 21:35:45 37.5843 -103.6880 71° East 499 924 39.000  Level FlightAware ADS-B
Sun 21:36:16 37.6066 -103.6050 71° East 500 925 39.000  Level FlightAware ADS-B
Sun 21:36:46 37.6289 -103.5210 71° East 501 929 39.000  Level FlightAware ADS-B
Sun 21:37:17 37.6513 -103.4360 72° East 502 930 39.000  Level FlightAware ADS-B
Sun 21:37:49 37.6750 -103.3460 72° East 502 930 39.000  Level FlightAware ADS-B
Sun 21:38:21 37.6979 -103.2580 72° East 504 933 39.000  Level FlightAware ADS-B
Sun 21:38:57 37.7246 -103.1560 72° East 504 933 39.000  Level FlightAware ADS-B
Sun 21:39:27 37.7465 -103.0720 72° East 504 933 39.000  Level FlightAware ADS-B
Sun 21:40:01 37.7709 -102.9790 72° East 502 930 39.000  Level FlightAware ADS-B
Sun 21:40:31 37.7926 -102.8950 72° East 502 930 39.000  Level FlightAware ADS-B
Sun 21:41:02 37.8145 -102.8100 72° East 502 930 39.000  Level FlightAware ADS-B
Sun 21:41:35 37.8383 -102.7180 72° East 502 930 39.000  Level FlightAware ADS-B
Sun 21:42:06 37.8603 -102.6320 72° East 500 925 39.000  Level FlightAware ADS-B
Sun 21:42:37 37.8823 -102.5460 72° East 500 925 39.000  Level FlightAware ADS-B
Sun 21:43:08 37.9045 -102.4590 72° East 498 922 39.000  Level FlightAware ADS-B
Sun 21:43:39 37.9260 -102.3750 72° East 497 921 39.000  Level FlightAware ADS-B
Sun 21:44:09 37.9475 -102.2900 72° East 495 917 39.000  Level FlightAware ADS-B
Sun 21:44:41 37.9693 -102.2040 72° East 494 914 39.000  Level FlightAware ADS-B
Sun 21:45:11 37.9903 -102.1200 72° East 493 912 39.000  Level FlightAware ADS-B
Sun 21:45:42 38.0115 -102.0360 72° East 491 909 39.000  Level FlightAware ADS-B
Sun 21:46:29 38.0434 -101.9080 72° East 489 906 39.000  Level FlightAware ADS-B
Sun 21:46:59 38.0638 -101.8260 72° East 486 900 39.000  Level FlightAware ADS-B
Sun 21:47:29 38.0840 -101.7440 73° East 485 898 39.000  Level FlightAware ADS-B
Sun 21:48:03 38.1065 -101.6530 73° East 485 898 39.000  Level FlightAware ADS-B
Sun 21:48:24 38.1133 -101.6256 73° East 484 896 39.000  Level Kansas City Center
Sun 21:49:15 38.1444 -101.4944 73° East 484 896 39.000  Level Denver Center
Sun 21:50:18 38.1900 -101.3125 72° East 482 893 39.000  Level Denver Center
Sun 21:51:19 38.2339 -101.1294 73° East 483 895 39.000  Level Denver Center
Sun 21:52:21 38.2719 -100.9731 73° East 482 893 39.000  Level Denver Center
Sun 21:53:23 38.3153 -100.7892 73° East 484 896 39.000  Level Denver Center
Sun 21:54:25 38.3522 -100.6317 73° East 484 896 39.000  Level Denver Center
Sun 21:55:27 38.3892 -100.4772 73° East 479 887 39.000  Level Denver Center
Sun 21:56:29 38.4247 -100.3203 74° East 479 887 39.000  Level Denver Center
Sun 21:57:31 38.4675 -100.1386 73° East 478 885 39.000  Level Denver Center
Sun 21:58:33 38.5100 -99.9567 73° East 479 887 39.000  Level Denver Center
Sun 21:59:35 38.5514 -99.8025 71° East 480 888 39.000  Level Denver Center
Sun 22:00:37 38.5981 -99.6208 72° East 482 893 39.000  Level Denver Center
Sun 22:01:41 38.6344 -99.4792 72° East 481 892 39.000  Level Kansas City Center
Sun 22:02:42 38.6758 -99.3156 72° East 483 895 39.000  Level Kansas City Center
Sun 22:03:44 38.7261 -99.1178 72° East 487 901 39.000  Level Kansas City Center
Sun 22:04:45 38.7664 -98.9547 72° East 482 893 39.000  Level Kansas City Center
Sun 22:05:46 38.8064 -98.7931 72° East 475 880 39.000  Level Kansas City Center
Sun 22:06:47 38.8472 -98.6300 72° East 476 882 39.000  Level Kansas City Center
Sun 22:07:48 38.8869 -98.4661 73° East 477 884 39.000  Level Kansas City Center
Sun 22:08:50 38.9253 -98.3019 73° East 479 887 39.000  Level Kansas City Center
Sun 22:09:51 38.9644 -98.1400 73° East 475 880 39.000  Level Kansas City Center
Sun 22:10:52 39.0028 -97.9742 73° East 480 888 39.000  Level Kansas City Center
Sun 22:11:53 39.0461 -97.7917 73° East 469 869 39.000  Level Kansas City Center
Sun 22:12:55 39.0825 -97.6367 73° East 471 872 39.000  Level Kansas City Center
Sun 22:13:56 39.1183 -97.4822 73° East 471 872 39.000  Level Kansas City Center
Sun 22:14:57 39.1608 -97.3008 73° East 472 874 39.000  Level Kansas City Center
Sun 22:15:58 39.1978 -97.1450 73° East 475 880 39.000  Level Kansas City Center
Sun 22:16:59 39.2344 -96.9878 73° East 477 884 39.000  Level Kansas City Center
Sun 22:18:01 39.2764 -96.8014 74° East 482 893 39.000 -293 Level Kansas City Center
Sun 22:19:02 39.3114 -96.6419 74° East 482 893 38.400 -787 Descending Kansas City Center
Sun 22:20:03 39.3508 -96.4694 73° East 480 888 37.400 -207 Descending Kansas City Center
Sun 22:25:47 39.5310 -95.6280 73° East 475 880 37.000 -56 Descending FlightAware ADS-B
Sun 22:27:12 39.6030 -95.2930 74° East 465 861 37.000  Level FlightAware ADS-B
Sun 22:27:47 39.6200 -95.2080 75° East 466 863 37.000  Level FlightAware ADS-B
Sun 22:30:02 39.6980 -94.8340 75° East 468 867 37.000  Level FlightAware ADS-B
Sun 22:30:42 39.7200 -94.7250 75° East 469 869 37.000  Level FlightAware ADS-B
Sun 22:31:22 39.7420 -94.6200 75° East 461 855 37.000  Level FlightAware ADS-B
Sun 22:32:07 39.7660 -94.5000 75° East 460 851 37.000  Level FlightAware ADS-B
Sun 22:32:47 39.7880 -94.3920 75° East 458 848 37.000  Level FlightAware ADS-B
Sun 22:33:27 39.8090 -94.2870 75° East 458 848 37.000  Level FlightAware ADS-B
Sun 22:34:12 39.8330 -94.1640 76° East 458 848 37.000  Level FlightAware ADS-B
Sun 22:34:52 39.8550 -94.0590 75° East 456 845 37.000  Level FlightAware ADS-B
Sun 22:35:37 39.8780 -93.9430 75° East 448 830 37.000  Level FlightAware ADS-B
Sun 22:36:17 39.8980 -93.8390 76° East 447 827 37.000  Level FlightAware ADS-B
Sun 22:36:57 39.9190 -93.7340 75° East 447 827 37.000  Level FlightAware ADS-B
Sun 22:37:42 39.9420 -93.6140 76° East 447 827 37.000  Level FlightAware ADS-B
Sun 22:38:22 39.9610 -93.5150 76° East 449 832 37.000  Level FlightAware ADS-B
Sun 22:39:02 39.9820 -93.4070 76° East 447 827 37.000  Level FlightAware ADS-B
Sun 22:39:47 40.0040 -93.2890 76° East 441 816 37.000  Level FlightAware ADS-B
Sun 22:40:27 40.0310 -93.1920 70° East 442 819 37.000  Level FlightAware ADS-B
Sun 22:41:12 40.0660 -93.0760 68° East 446 826 37.000  Level FlightAware ADS-B
Sun 22:41:52 40.0950 -92.9780 69° East 448 830 37.000  Level FlightAware ADS-B
Sun 22:42:32 40.1260 -92.8770 68° East 449 832 37.000  Level FlightAware ADS-B
Sun 22:43:17 40.1590 -92.7650 69° East 449 832 37.000  Level FlightAware ADS-B
Sun 22:43:57 40.1890 -92.6630 69° East 448 830 37.000  Level FlightAware ADS-B
Sun 22:44:42 40.2230 -92.5480 69° East 447 827 37.000  Level FlightAware ADS-B
Sun 22:45:22 40.2520 -92.4490 69° East 446 826 37.000  Level FlightAware ADS-B
Sun 22:45:57 40.2770 -92.3660 68° East 446 826 37.000  Level FlightAware ADS-B
Sun 22:46:47 40.3080 -92.2590 69° East 446 826 37.000  Level FlightAware ADS-B
Sun 22:47:27 40.3330 -92.1730 69° East 446 826 37.000 -1.271 Level FlightAware ADS-B
Sun 22:48:12 40.3780 -92.0190 69° East 448 830 35.200 -1.765 Descending FlightAware ADS-B
Sun 22:48:52 40.4060 -91.9220 69° East 432 800 34.500 -1.125 Descending FlightAware ADS-B
Sun 22:49:32 40.4340 -91.8230 70° East 430 797 33.700 -1.059 Descending FlightAware ADS-B
Sun 22:50:17 40.4640 -91.7180 69° East 430 797 33.000 -675 Descending FlightAware ADS-B
Sun 22:50:52 40.4880 -91.6360 69° East 432 800 32.800 -1.059 Descending FlightAware ADS-B
Sun 22:51:42 40.5260 -91.5000 70° East 441 816 31.500 -1.200 Descending FlightAware ADS-B
Sun 22:52:22 40.5540 -91.4010 70° East 441 816 31.000 -353 Descending FlightAware ADS-B
Sun 22:53:07 40.5920 -91.2920 65° Northeast 439 813 31.000  Level FlightAware ADS-B
Sun 22:53:42 40.6190 -91.2120 66° East 439 813 31.000  Level FlightAware ADS-B
Sun 22:54:22 40.6540 -91.1130 65° Northeast 439 813 31.000  Level FlightAware ADS-B
Sun 22:55:12 40.6960 -90.9870 66° East 442 819 31.000  Level FlightAware ADS-B
Sun 22:55:52 40.7300 -90.8860 66° East 442 819 31.000  Level FlightAware ADS-B
Sun 22:56:32 40.7620 -90.7920 66° East 443 821 31.000  Level FlightAware ADS-B
Sun 22:57:17 40.7990 -90.6820 66° East 443 821 31.000  Level FlightAware ADS-B
Sun 22:57:57 40.8340 -90.5790 66° East 442 819 31.000  Level FlightAware ADS-B
Sun 22:58:42 40.8690 -90.4740 66° East 442 819 31.000  Level FlightAware ADS-B
Sun 22:59:22 40.9030 -90.3720 66° East 441 816 31.000  Level FlightAware ADS-B
Sun 23:00:07 40.9400 -90.2590 67° East 441 816 31.000  Level FlightAware ADS-B
Sun 23:00:47 40.9730 -90.1600 66° East 441 816 31.000 -375 Level FlightAware ADS-B
Sun 23:01:27 41.0040 -90.0650 67° East 439 813 30.500 -918 Descending FlightAware ADS-B
Sun 23:02:12 41.0420 -89.9490 66° East 435 806 29.700 -1.341 Descending FlightAware ADS-B
Sun 23:02:52 41.0730 -89.8550 66° East 427 790 28.600 -2.025 Descending FlightAware ADS-B
Sun 23:03:32 41.1030 -89.7620 67° East 415 769 27.000 -2.400 Descending FlightAware ADS-B
Sun 23:04:17 41.1380 -89.6550 66° East 401 742 25.200 -2.267 Descending FlightAware ADS-B
Sun 23:05:02 41.1710 -89.5590 65° Northeast 388 719 23.600 -1.553 Descending FlightAware ADS-B
Sun 23:05:42 41.2040 -89.4790 61° Northeast 391 724 23.000 -900 Descending FlightAware ADS-B
Sun 23:06:22 41.2400 -89.3910 61° Northeast 392 726 22.400 -1.200 Descending FlightAware ADS-B
Sun 23:07:07 41.2790 -89.2940 62° Northeast 388 719 21.300 -1.835 Descending FlightAware ADS-B
Sun 23:07:47 41.3120 -89.2120 62° Northeast 380 703 19.800 -2.259 Descending FlightAware ADS-B
Sun 23:08:32 41.3480 -89.1220 62° Northeast 369 684 18.100 -2.329 Descending FlightAware ADS-B
Sun 23:09:12 41.3790 -89.0430 62° Northeast 363 673 16.500 -2.025 Descending FlightAware ADS-B
Sun 23:09:52 41.4120 -88.9620 61° Northeast 342 634 15.400 -1.976 Descending FlightAware ADS-B
Sun 23:10:37 41.4440 -88.8820 62° Northeast 335 621 13.700 -2.329 Descending FlightAware ADS-B
Sun 23:11:17 41.4730 -88.8080 62° Northeast 337 624 12.100 -1.835 Descending FlightAware ADS-B
Sun 23:12:02 41.5050 -88.7260 62° Northeast 316 586 11.100 -847 Descending FlightAware ADS-B
Sun 23:12:42 41.5310 -88.6600 62° Northeast 306 566 10.900 -150 Descending FlightAware ADS-B
Sun 23:13:22 41.5580 -88.5920 62° Northeast 303 562 10.900  Level FlightAware ADS-B
Sun 23:14:07 41.5880 -88.5180 62° Northeast 306 566 10.900  Level FlightAware ADS-B
Sun 23:14:47 41.6170 -88.4540 59° Northeast 296 549 10.900 -424 Level FlightAware ADS-B
Sun 23:15:32 41.6520 -88.3940 52° Northeast 274 507 10.300 -1.114 Descending FlightAware ADS-B
Sun 23:15:57 41.6740 -88.3620 47° Northeast 275 509 9.600 -1.650 Descending FlightAware ADS-B
Sun 23:16:12 41.6920 -88.3540 18° North 282 523 9.200 -1.467 Descending FlightAware ADS-B
Sun 23:16:42 41.7280 -88.3570 356° North 286 529 8.500 -1.200 Descending FlightAware ADS-B
Sun 23:17:07 41.7640 -88.3610 355° North 276 512 8.100 -764 Descending FlightAware ADS-B
Sun 23:17:37 41.7990 -88.3650 355° North 258 478 7.800 -655 Descending FlightAware ADS-B
Sun 23:18:02 41.8280 -88.3690 354° North 242 447 7.500 -1.200 Descending FlightAware ADS-B
Sun 23:18:32 41.8600 -88.3720 356° North 243 451 6.700 -1.500 Descending FlightAware ADS-B
Sun 23:19:02 41.8940 -88.3770 354° North 241 446 6.000 -1.320 Descending FlightAware ADS-B
Sun 23:19:22 41.9150 -88.3790 356° North 234 433 5.600 -1.350 Descending FlightAware ADS-B
Sun 23:19:42 41.9330 -88.3690 22° Northeast 220 407 5.100 -1.886 Descending FlightAware ADS-B
Sun 23:19:57 41.9430 -88.3480 57° Northeast 215 398 4.500 -1.600 Descending FlightAware ADS-B
Sun 23:20:27 41.9560 -88.3100 65° Northeast 214 396 3.900 -655 Descending FlightAware ADS-B
Sun 23:20:52 41.9660 -88.2790 67° East 213 394 3.900  Level FlightAware ADS-B
Sun 23:21:22 41.9680 -88.2430 86° East 211 391 3.900  Level FlightAware ADS-B
Sun 23:21:47 41.9680 -88.2090 90° East 206 381 3.900  Level FlightAware ADS-B
Sun 23:22:17 41.9680 -88.1700 90° East 211 391 3.900 -327 Level FlightAware ADS-B
Sun 23:22:42 41.9680 -88.1400 90° East 199 369 3.600 -900 Descending FlightAware ADS-B
Sun 23:22:57 41.9680 -88.1210 90° East 191 354 3.300 -1.067 Descending FlightAware ADS-B
Sun 23:23:27 41.9690 -88.0860 88° East 182 336 2.800 -1.000 Descending FlightAware ADS-B
Sun 23:23:57 41.9690 -88.0530 90° East 179 332 2.300 -933 Descending FlightAware ADS-B
Sun 23:24:12 41.9690 -88.0370 90° East 169 312 2.100 -800 Descending FlightAware ADS-B
Sun 23:24:42 41.9690 -88.0110 90° East 144 267 1.700 -720 Descending FlightAware ADS-B
Sun 23:25:27 41.9690 -87.9710 90° East 135 249 1.200 -706 Descending FlightAware ADS-B
Sun 23:26:07 41.9690 -87.9360 90° East 146 270 700 -750 Descending FlightAware ADS-B

Login

Don't have an account? Register now (free) for customized features, flight alerts, and more!